createdAt,value
2022-08-10T00:01:41.080Z,2.63
2022-08-10T00:04:09.050Z,3.03
2022-08-10T00:09:11.425Z,2.72
2022-08-10T00:11:39.335Z,3.03
2022-08-10T00:14:07.302Z,3.00
2022-08-10T00:16:36.704Z,2.80
2022-08-10T00:24:00.656Z,2.65
2022-08-10T00:27:52.145Z,2.50
2022-08-10T00:31:57.981Z,2.80
2022-08-10T00:36:55.434Z,3.00
2022-08-10T00:39:23.538Z,2.88
2022-08-10T00:42:06.482Z,3.28
2022-08-10T00:44:35.514Z,2.58
2022-08-10T00:47:05.039Z,3.47
2022-08-10T00:49:33.057Z,2.72
2022-08-10T00:52:01.109Z,3.10
2022-08-10T00:54:29.469Z,2.60
2022-08-10T00:57:17.907Z,2.58
2022-08-10T01:02:30.330Z,3.00
2022-08-10T01:05:02.075Z,2.80
2022-08-10T01:07:52.252Z,2.75
2022-08-10T01:10:30.136Z,3.08
2022-08-10T01:13:05.383Z,2.90
2022-08-10T01:15:37.929Z,3.10
2022-08-10T01:18:10.633Z,2.97
2022-08-10T01:20:46.534Z,3.00
2022-08-10T01:23:51.809Z,3.53
2022-08-10T01:26:58.719Z,3.28
2022-08-10T01:29:53.507Z,3.60
2022-08-10T01:32:31.274Z,3.30
2022-08-10T01:35:07.254Z,3.30
2022-08-10T01:37:43.650Z,3.88
2022-08-10T01:40:25.227Z,3.65
2022-08-10T01:45:26.654Z,3.78
2022-08-10T01:48:16.477Z,3.70
2022-08-10T02:01:21.163Z,3.15
2022-08-10T02:04:04.128Z,3.20
2022-08-10T02:06:38.012Z,3.17
2022-08-10T02:09:08.319Z,2.75
2022-08-10T02:11:57.485Z,3.72
2022-08-10T02:14:33.930Z,3.30
2022-08-10T02:17:09.016Z,3.17
2022-08-10T02:20:00.124Z,3.10
2022-08-10T02:22:35.798Z,3.42
2022-08-10T02:27:37.581Z,3.10
2022-08-10T02:32:39.827Z,3.20
2022-08-10T02:35:21.821Z,3.80
2022-08-10T02:37:52.430Z,2.88
2022-08-10T02:45:21.827Z,3.20
2022-08-10T02:48:45.643Z,3.45
2022-08-10T02:51:19.588Z,3.80
2022-08-10T02:54:11.441Z,4.03
2022-08-10T02:56:43.080Z,3.67
2022-08-10T02:59:13.843Z,3.60
2022-08-10T03:01:46.348Z,3.63
2022-08-10T03:04:20.766Z,3.50
2022-08-10T03:09:43.743Z,3.78
2022-08-10T03:12:35.530Z,3.83
2022-08-10T03:15:04.089Z,3.30
2022-08-10T03:17:34.039Z,3.72
2022-08-10T03:20:36.738Z,3.22
2022-08-10T03:22:54.171Z,3.70
2022-08-10T03:25:25.148Z,3.40
2022-08-10T03:27:57.092Z,3.28
2022-08-10T03:30:33.634Z,3.67
2022-08-10T03:33:03.761Z,3.88
2022-08-10T03:35:33.301Z,4.15
2022-08-10T03:38:01.719Z,3.38
2022-08-10T03:40:46.345Z,4.07
2022-08-10T03:43:18.484Z,3.90
2022-08-10T03:45:54.957Z,3.83
2022-08-10T03:48:42.418Z,3.70
2022-08-10T03:51:15.884Z,3.85
2022-08-10T03:54:05.889Z,3.63
2022-08-10T03:56:33.363Z,3.30
2022-08-10T03:59:02.090Z,4.18
2022-08-10T04:02:43.352Z,3.97
2022-08-10T04:04:24.259Z,4.07
2022-08-10T04:06:55.745Z,3.83
2022-08-10T04:09:25.098Z,3.50
2022-08-10T04:12:11.567Z,4.10
2022-08-10T04:14:51.365Z,3.85
2022-08-10T04:18:04.121Z,3.80
2022-08-10T04:20:17.582Z,4.05
2022-08-10T04:22:49.768Z,3.53
2022-08-10T04:25:18.447Z,4.20
2022-08-10T04:27:47.502Z,4.15
2022-08-10T04:30:15.797Z,3.72
2022-08-10T04:35:17.447Z,3.60
2022-08-10T04:37:49.503Z,3.85
2022-08-10T04:40:28.638Z,4.22
2022-08-10T04:43:03.306Z,4.10
2022-08-10T04:45:47.367Z,4.07
2022-08-10T04:48:39.900Z,3.67
2022-08-10T04:51:11.219Z,4.28
2022-08-10T04:54:05.809Z,4.03
2022-08-10T04:56:37.287Z,4.20
2022-08-10T04:59:06.646Z,4.07
2022-08-10T05:02:21.449Z,4.40
2022-08-10T05:04:34.488Z,4.00
2022-08-10T05:07:08.753Z,4.72
2022-08-10T05:10:01.051Z,4.28
2022-08-10T05:12:26.670Z,4.43
2022-08-10T05:14:54.882Z,4.22
2022-08-10T05:17:23.255Z,4.68
2022-08-10T05:20:03.409Z,4.30
2022-08-10T05:22:35.503Z,4.03
2022-08-10T05:27:34.710Z,4.38
2022-08-10T05:30:03.838Z,4.25
2022-08-10T05:32:55.455Z,3.83
2022-08-10T05:35:20.660Z,4.05
2022-08-10T05:38:10.520Z,4.00
2022-08-10T05:40:39.393Z,3.90
2022-08-10T05:43:08.018Z,4.10
2022-08-10T05:48:57.115Z,4.65
2022-08-10T05:51:12.490Z,4.13
2022-08-10T05:54:01.838Z,3.25
2022-08-10T05:56:54.018Z,4.20
2022-08-10T06:00:11.145Z,3.20
2022-08-10T06:02:33.143Z,3.72
2022-08-10T06:04:56.646Z,3.78
2022-08-10T06:09:59.818Z,4.15
2022-08-10T06:12:32.194Z,3.97
2022-08-10T06:15:05.588Z,3.83
2022-08-10T06:17:39.484Z,3.92
2022-08-10T06:20:08.522Z,4.00
2022-08-10T06:25:44.294Z,3.47
2022-08-10T06:27:57.459Z,3.97
2022-08-10T06:35:29.174Z,3.80
2022-08-10T06:37:59.578Z,4.30
2022-08-10T06:40:30.645Z,3.35
2022-08-10T06:43:02.466Z,3.25
2022-08-10T06:48:05.369Z,3.13
2022-08-10T06:53:53.761Z,2.90
2022-08-10T06:56:37.605Z,3.00
2022-08-10T06:59:13.431Z,2.78
2022-08-10T07:01:54.337Z,2.92
2022-08-10T07:04:32.345Z,2.90
2022-08-10T07:07:05.287Z,2.67
2022-08-10T07:09:36.411Z,3.10
2022-08-10T07:12:08.288Z,2.65
2022-08-10T07:14:42.278Z,2.95
2022-08-10T07:17:15.772Z,2.78
2022-08-10T07:19:50.559Z,2.55
2022-08-10T07:23:01.505Z,3.28
2022-08-10T07:25:13.324Z,2.80
2022-08-10T07:28:00.788Z,3.20
2022-08-10T07:30:36.949Z,2.55
2022-08-10T07:33:06.788Z,3.25
2022-08-10T07:35:42.987Z,2.65
2022-08-10T07:38:18.048Z,2.45
2022-08-10T07:40:47.486Z,2.53
2022-08-10T07:43:17.982Z,2.65
2022-08-10T07:45:48.903Z,2.33
2022-08-10T07:48:20.844Z,2.65
2022-08-10T07:50:50.260Z,2.65
2022-08-10T07:53:22.803Z,2.42
2022-08-10T07:56:04.177Z,2.55
2022-08-10T07:58:46.356Z,2.33
2022-08-10T08:01:24.895Z,2.33
2022-08-10T08:04:05.625Z,2.42
2022-08-10T08:06:41.301Z,2.33
2022-08-10T08:09:10.076Z,2.40
2022-08-10T08:11:40.535Z,2.28
2022-08-10T08:14:09.853Z,2.25
2022-08-10T08:24:07.808Z,2.30
2022-08-10T08:24:52.277Z,2.50
2022-08-10T08:27:22.199Z,2.58
2022-08-10T08:29:51.730Z,2.08
2022-08-10T08:34:55.694Z,2.03
2022-08-10T08:38:32.123Z,2.40
2022-08-10T08:40:18.011Z,2.50
2022-08-10T08:43:06.030Z,2.28
2022-08-10T08:46:01.571Z,3.30
2022-08-10T08:48:53.351Z,2.33
2022-08-10T08:52:07.018Z,2.53
2022-08-10T08:57:12.446Z,2.28
2022-08-10T09:00:05.307Z,2.33
2022-08-10T09:02:54.464Z,2.08
2022-08-10T09:11:31.684Z,2.25
2022-08-10T09:14:07.350Z,2.47
2022-08-10T09:16:44.399Z,2.55
2022-08-10T09:19:35.530Z,2.40
2022-08-10T09:22:18.181Z,2.40
2022-08-10T09:24:53.309Z,2.60
2022-08-10T09:27:24.028Z,2.50
2022-08-10T09:29:56.254Z,2.30
2022-08-10T09:36:13.678Z,2.30
2022-08-10T09:36:20.908Z,2.47
2022-08-10T09:38:43.680Z,2.22
2022-08-10T09:41:24.222Z,2.55
2022-08-10T09:49:25.050Z,2.30
2022-08-10T09:54:55.407Z,2.53
2022-08-10T10:02:53.366Z,2.13
2022-08-10T10:08:10.863Z,2.50
2022-08-10T10:10:55.159Z,2.20
2022-08-10T10:13:50.637Z,2.30
2022-08-10T10:17:04.794Z,2.20
2022-08-10T10:20:04.526Z,2.10
2022-08-10T10:22:44.499Z,2.65
2022-08-10T10:27:59.324Z,2.58
2022-08-10T10:33:13.051Z,2.58
2022-08-10T10:35:48.771Z,2.40
2022-08-10T10:38:18.610Z,2.30
2022-08-10T10:43:41.060Z,2.30
2022-08-10T10:46:24.002Z,2.65
2022-08-10T10:54:09.479Z,2.30
2022-08-10T11:07:56.800Z,2.40
2022-08-10T11:16:06.683Z,2.40
2022-08-10T11:21:28.238Z,2.35
2022-08-10T11:26:56.696Z,2.20
2022-08-10T11:45:10.058Z,2.55
2022-08-10T11:47:46.125Z,2.25
2022-08-10T11:50:22.112Z,2.60
2022-08-10T11:58:01.642Z,2.03
2022-08-10T12:00:33.106Z,2.53
2022-08-10T12:11:10.598Z,2.50
2022-08-10T12:13:58.430Z,3.10
2022-08-10T12:24:21.251Z,2.67
2022-08-10T13:22:25.388Z,3.33
2022-08-10T13:55:53.220Z,2.30
2022-08-10T14:23:48.510Z,2.90
2022-08-10T15:40:24.657Z,2.78
2022-08-10T17:04:06.034Z,3.28
2022-08-10T17:06:35.385Z,3.10
2022-08-10T17:11:38.711Z,2.67
2022-08-10T17:26:52.968Z,2.83
2022-08-10T17:34:54.269Z,2.70
2022-08-10T17:47:28.711Z,2.72
2022-08-10T17:49:58.470Z,3.15
2022-08-10T17:52:30.189Z,3.03
2022-08-10T17:57:36.198Z,2.67
2022-08-10T18:00:07.002Z,3.15
2022-08-10T18:12:47.531Z,2.75
2022-08-10T18:20:31.792Z,2.58
2022-08-10T18:25:34.577Z,2.83
2022-08-10T18:30:45.608Z,2.80
2022-08-10T18:33:20.452Z,3.10
2022-08-10T18:38:22.443Z,2.50
2022-08-10T18:40:54.332Z,2.42
2022-08-10T18:44:05.886Z,2.75
2022-08-10T18:46:28.012Z,2.60
2022-08-10T18:49:05.791Z,2.90
2022-08-10T18:51:46.930Z,2.50
2022-08-10T18:54:39.429Z,2.60
2022-08-10T19:02:56.449Z,2.78
2022-08-10T19:05:37.972Z,2.78
2022-08-10T19:11:31.193Z,2.42
2022-08-10T19:14:04.094Z,3.10
2022-08-10T19:16:39.579Z,2.80
2022-08-10T19:19:22.109Z,4.57
2022-08-10T19:21:59.325Z,3.35
2022-08-10T19:24:37.501Z,3.13
2022-08-10T19:27:15.365Z,2.90
2022-08-10T19:30:11.588Z,2.80
2022-08-10T19:32:59.964Z,2.80
2022-08-10T19:38:35.307Z,3.08
2022-08-10T19:41:11.876Z,3.70
2022-08-10T19:44:00.953Z,3.40
2022-08-10T19:46:42.279Z,3.40
2022-08-10T19:49:19.732Z,2.75
2022-08-10T19:54:36.410Z,3.08
2022-08-10T19:57:12.404Z,3.35
2022-08-10T20:00:15.926Z,3.15
2022-08-10T20:02:52.165Z,2.97
2022-08-10T20:05:31.116Z,2.50
2022-08-10T20:08:07.265Z,3.00
2022-08-10T20:10:46.635Z,2.70
2022-08-10T20:13:22.348Z,3.17
2022-08-10T20:15:59.315Z,3.00
2022-08-10T20:21:12.261Z,3.33
2022-08-10T20:23:53.984Z,3.00
2022-08-10T20:26:30.903Z,2.80
2022-08-10T20:29:10.201Z,3.78
2022-08-10T20:31:51.621Z,3.83
2022-08-10T20:36:58.417Z,3.05
2022-08-10T20:39:44.743Z,4.13
2022-08-10T20:42:21.912Z,3.13
2022-08-10T20:44:56.935Z,3.15
2022-08-10T20:47:44.295Z,3.60
2022-08-10T20:50:32.924Z,3.55
2022-08-10T20:53:05.276Z,3.92
2022-08-10T20:55:57.537Z,3.55
2022-08-10T20:58:54.781Z,3.72
2022-08-10T21:02:06.485Z,2.90
2022-08-10T21:04:42.806Z,3.65
2022-08-10T21:07:57.797Z,3.20
2022-08-10T21:13:19.590Z,3.83
2022-08-10T21:15:59.856Z,3.80
2022-08-10T21:18:54.680Z,3.60
2022-08-10T21:21:45.533Z,3.03
2022-08-10T21:24:41.178Z,3.20
2022-08-10T21:27:27.200Z,3.25
2022-08-10T21:30:09.167Z,3.28
2022-08-10T21:32:48.778Z,3.40
2022-08-10T21:35:36.775Z,2.83
2022-08-10T21:38:12.923Z,3.13
2022-08-10T21:41:18.119Z,2.85
2022-08-10T21:44:04.920Z,3.00
2022-08-10T21:47:02.795Z,2.92
2022-08-10T21:50:03.894Z,2.92
2022-08-10T21:53:04.268Z,2.88
2022-08-10T21:56:14.566Z,2.80
2022-08-10T21:59:08.647Z,3.40
2022-08-10T22:01:59.461Z,3.08
2022-08-10T22:04:45.798Z,3.13
2022-08-10T22:07:38.377Z,2.85
2022-08-10T22:10:27.069Z,3.20
2022-08-10T22:13:19.586Z,3.85
2022-08-10T22:16:11.546Z,2.70
2022-08-10T22:19:02.953Z,2.90
2022-08-10T22:22:00.341Z,2.72
2022-08-10T22:25:02.068Z,2.95
2022-08-10T22:27:51.397Z,3.75
2022-08-10T22:30:38.672Z,3.28
2022-08-10T22:33:42.373Z,3.47
2022-08-10T22:43:10.009Z,3.22
2022-08-10T22:46:03.386Z,2.78
2022-08-10T22:48:52.129Z,3.17
2022-08-10T22:51:23.765Z,3.10
2022-08-10T22:54:30.481Z,3.05
2022-08-10T22:57:18.501Z,3.63
2022-08-10T22:59:49.422Z,2.92
2022-08-10T23:02:29.506Z,3.13
2022-08-10T23:05:03.061Z,3.38
2022-08-10T23:07:33.106Z,3.25
2022-08-10T23:10:06.730Z,3.42
2022-08-10T23:15:37.407Z,3.67
2022-08-10T23:20:57.164Z,4.32
2022-08-10T23:26:00.242Z,3.25
2022-08-10T23:31:13.448Z,3.20
2022-08-10T23:33:43.088Z,3.67
2022-08-10T23:36:34.558Z,2.95
2022-08-10T23:39:25.661Z,3.78
2022-08-10T23:41:59.738Z,3.67
2022-08-10T23:44:36.136Z,3.40
2022-08-10T23:47:06.826Z,3.83
2022-08-10T23:49:37.320Z,3.78
2022-08-10T23:52:11.897Z,3.40
2022-08-10T23:54:51.274Z,3.85
2022-08-10T23:57:22.717Z,4.00
2022-08-10T23:59:56.773Z,3.92
